Panola, Illinois
Current Conditions -  °F | °C
As of 3:56 AM on Sunday 21 Dec 2014 (Local Time) from KBMI Reporting Station
Haze Haze  
Wind Chill: 25°   Ceiling: 2600
Heat Index: 32°   Visibility: 6mi
Dew Point: 30°   Wind: 8mph
Humidity: 92%   Direction: 160°SSE
Pressure: 30.21"   Gusts: NA
Location:  40.7564°N, 89.0023°W
Report Text: KBMI 210956Z AUTO 16007KT 6SM BR BKN026 OVC032 00/M01 A3021 RMK AO2 T00001011 SLP247
Loading
Personal Weather Stations






























Interactive Weather Map New forecast layout! Learn more

10-Day Weather Forecast

Advertisements
Track Severe Weather on mobile